| time (UTC) | temp C | wind direction | speed KPH | gust KPH | rain 1hr cm | rain 24hr cm | rain mn cm | humidity % | barometer mb |
| 20260507010552 | 12 | 260 | 3.2 | 11.3 | 0.08 | 0.66 | 0.66 | 95 | 1004.9 |
| 20260507010059 | 12 | 285 | 0.0 | 0.0 | 0.10 | 0.66 | 0.66 | 95 | 1004.9 |
| 20260507005547 | 12 | 285 | 0.0 | 3.2 | 0.13 | 0.66 | 0.66 | 94 | 1004.9 |
| 20260507005029 | 12 | 297 | 0.0 | 4.8 | 0.10 | 0.64 | 0.64 | 94 | 1004.8 |
| 20260507004532 | 12 | 244 | 1.6 | 11.3 | 0.10 | 0.64 | 0.64 | 92 | 1004.8 |
| 20260507004038 | 12 | 290 | 4.8 | 14.5 | 0.10 | 0.64 | 0.64 | 94 | 1004.7 |
| 20260507003544 | 13 | 340 | 3.2 | 19.3 | 0.10 | 0.64 | 0.64 | 93 | 1004.6 |
| 20260507003032 | 13 | 317 | 8.0 | 16.1 | 0.08 | 0.61 | 0.61 | 94 | 1004.3 |
| 20260507002552 | 14 | 298 | 1.6 | 6.4 | 0.05 | 0.58 | 0.58 | 95 | 1004.4 |
| 20260507002041 | 14 | 239 | 0.0 | 9.7 | 0.05 | 0.58 | 0.58 | 94 | 1004.0 |
| 20260507001526 | 14 | 158 | 1.6 | 11.3 | 0.05 | 0.58 | 0.58 | 94 | 1003.9 |
| 20260507001053 | 14 | 155 | 4.8 | 11.3 | 0.05 | 0.58 | 0.58 | 94 | 1003.8 |
| 20260507000553 | 14 | 162 | 3.2 | 8.0 | 0.05 | 0.58 | 0.58 | 94 | 1003.8 |
| 20260507000038 | 14 | 144 | 3.2 | 8.0 | 0.03 | 0.56 | 0.56 | 93 | 1003.7 |
| 20260506235550 | 14 | 164 | 4.8 | 9.7 | 0.00 | 0.64 | 0.53 | 92 | 1003.7 |
| 20260506235033 | 14 | 145 | 1.6 | 9.7 | 0.00 | 0.64 | 0.53 | 92 | 1003.7 |
| 20260506234533 | 14 | 198 | 4.8 | 11.3 | 0.00 | 0.64 | 0.53 | 92 | 1003.6 |
| 20260506234033 | 14 | 135 | 3.2 | 12.9 | 0.00 | 0.64 | 0.53 | 92 | 1003.5 |
| 20260506233542 | 14 | 169 | 6.4 | 12.9 | 0.00 | 0.64 | 0.53 | 92 | 1003.6 |
| 20260506233036 | 15 | 180 | 6.4 | 11.3 | 0.00 | 0.64 | 0.53 | 91 | 1003.6 |
| 20260506232545 | 15 | 162 | 3.2 | 11.3 | 0.00 | 0.64 | 0.53 | 92 | 1003.6 |
| 20260506232034 | 15 | 186 | 4.8 | 12.9 | 0.00 | 0.64 | 0.53 | 91 | 1003.6 |
| 20260506231523 | 15 | 148 | 3.2 | 12.9 | 0.00 | 0.64 | 0.53 | 91 | 1003.5 |
| 20260506231034 | 15 | 165 | 8.0 | 17.7 | 0.00 | 0.64 | 0.53 | 91 | 1003.6 |
| 20260506230549 | 15 | 127 | 6.4 | 17.7 | 0.00 | 0.64 | 0.53 | 92 | 1003.5 |
| 20260506230033 | 15 | 173 | 4.8 | 14.5 | 0.00 | 0.64 | 0.53 | 92 | 1003.5 |
| 20260506225525 | 15 | 171 | 4.8 | 14.5 | 0.00 | 0.69 | 0.53 | 91 | 1003.5 |
| 20260506225042 | 15 | 154 | 6.4 | 12.9 | 0.00 | 0.69 | 0.53 | 91 | 1003.4 |
| 20260506224550 | 15 | 108 | 3.2 | 14.5 | 0.00 | 0.69 | 0.53 | 91 | 1003.5 |
| 20260506224030 | 15 | 103 | 4.8 | 17.7 | 0.00 | 0.69 | 0.53 | 91 | 1003.5 |
| 20260506223549 | 15 | 186 | 8.0 | 17.7 | 0.00 | 0.69 | 0.53 | 91 | 1003.6 |
| 20260506223033 | 15 | 137 | 3.2 | 14.5 | 0.00 | 0.69 | 0.53 | 92 | 1003.5 |
| 20260506222537 | 15 | 147 | 4.8 | 14.5 | 0.00 | 0.69 | 0.53 | 92 | 1003.6 |
| 20260506222033 | 15 | 222 | 3.2 | 12.9 | 0.00 | 0.69 | 0.53 | 92 | 1003.6 |
| 20260506221608 | 15 | 120 | 4.8 | 12.9 | 0.00 | 0.69 | 0.53 | 91 | 1003.5 |
| 20260506221036 | 15 | 159 | 4.8 | 12.9 | 0.00 | 0.69 | 0.53 | 92 | 1003.6 |
| 20260506220534 | 15 | 190 | 3.2 | 14.5 | 0.00 | 0.69 | 0.53 | 91 | 1003.7 |
| 20260506220044 | 15 | 184 | 4.8 | 14.5 | 0.00 | 0.69 | 0.53 | 91 | 1003.6 |
| 20260506215539 | 15 | 78 | 1.6 | 12.9 | 0.00 | 0.69 | 0.53 | 91 | 1003.6 |
| 20260506215032 | 15 | 200 | 4.8 | 16.1 | 0.00 | 0.69 | 0.53 | 91 | 1003.7 |
| 20260506214548 | 15 | 184 | 6.4 | 17.7 | 0.00 | 0.69 | 0.53 | 91 | 1003.6 |
| 20260506214038 | 15 | 204 | 8.0 | 17.7 | 0.00 | 0.69 | 0.53 | 90 | 1003.6 |
| 20260506213534 | 16 | 153 | 3.2 | 20.9 | 0.00 | 0.69 | 0.53 | 91 | 1003.6 |
| 20260506213032 | 16 | 167 | 6.4 | 20.9 | 0.03 | 0.69 | 0.53 | 90 | 1003.6 |
| 20260506212548 | 16 | 146 | 8.0 | 19.3 | 0.03 | 0.69 | 0.53 | 90 | 1003.6 |
| 20260506212033 | 16 | 134 | 9.7 | 17.7 | 0.03 | 0.69 | 0.53 | 90 | 1003.7 |
| 20260506211531 | 16 | 244 | 3.2 | 14.5 | 0.03 | 0.69 | 0.53 | 90 | 1003.8 |
| 20260506211026 | 16 | 167 | 8.0 | 16.1 | 0.03 | 0.69 | 0.53 | 90 | 1003.8 |
| 20260506210529 | 16 | 199 | 8.0 | 19.3 | 0.03 | 0.69 | 0.53 | 91 | 1003.8 |
| 20260506210033 | 16 | 164 | 9.7 | 17.7 | 0.03 | 0.69 | 0.53 | 90 | 1003.8 |
| 20260506205534 | 16 | 190 | 6.4 | 14.5 | 0.03 | 0.69 | 0.53 | 91 | 1003.9 |
| 20260506205059 | 16 | 164 | 9.7 | 20.9 | 0.05 | 0.69 | 0.53 | 90 | 1003.8 |
| 20260506204535 | 16 | 126 | 4.8 | 16.1 | 0.05 | 0.69 | 0.53 | 91 | 1003.9 |
| 20260506204059 | 16 | 173 | 8.0 | 12.9 | 0.08 | 0.69 | 0.53 | 90 | 1003.9 |
| 20260506203542 | 16 | 170 | 9.7 | 19.3 | 0.10 | 0.69 | 0.53 | 91 | 1003.9 |
| 20260506203055 | 16 | 134 | 9.7 | 19.3 | 0.10 | 0.66 | 0.51 | 91 | 1004.0 |
| 20260506202523 | 15 | 161 | 6.4 | 16.1 | 0.13 | 0.66 | 0.51 | 91 | 1004.1 |
| 20260506202038 | 16 | 120 | 6.4 | 12.9 | 0.15 | 0.66 | 0.51 | 92 | 1004.1 |
| 20260506201523 | 16 | 145 | 3.2 | 11.3 | 0.18 | 0.66 | 0.51 | 90 | 1004.2 |
| 20260506201032 | 16 | 108 | 1.6 | 11.3 | 0.18 | 0.66 | 0.51 | 92 | 1004.3 |
| 20260506200554 | 15 | 171 | 0.0 | 11.3 | 0.18 | 0.66 | 0.51 | 92 | 1004.3 |
| 20260506200025 | 15 | 159 | 0.0 | 6.4 | 0.20 | 0.66 | 0.51 | 91 | 1004.3 |
| 20260506195545 | 15 | 159 | 1.6 | 6.4 | 0.20 | 0.66 | 0.51 | 92 | 1004.4 |
| 20260506195034 | 15 | 148 | 3.2 | 6.4 | 0.20 | 0.64 | 0.48 | 92 | 1004.5 |
| 20260506194534 | 15 | 99 | 4.8 | 8.0 | 0.18 | 0.61 | 0.46 | 91 | 1004.7 |
| 20260506194032 | 15 | 240 | 1.6 | 11.3 | 0.20 | 0.61 | 0.46 | 91 | 1004.7 |
| 20260506193531 | 15 | 130 | 1.6 | 8.0 | 0.18 | 0.58 | 0.43 | 92 | 1004.7 |
| 20260506193049 | 15 | 155 | 4.8 | 9.7 | 0.15 | 0.56 | 0.41 | 91 | 1004.6 |
| 20260506192525 | 15 | 157 | 3.2 | 9.7 | 0.13 | 0.53 | 0.38 | 90 | 1004.7 |
| 20260506192041 | 15 | 150 | 3.2 | 6.4 | 0.10 | 0.51 | 0.36 | 90 | 1004.8 |
| 20260506191541 | 15 | 88 | 0.0 | 8.0 | 0.10 | 0.48 | 0.33 | 91 | 1004.7 |
| 20260506191035 | 15 | 130 | 4.8 | 9.7 | 0.10 | 0.48 | 0.33 | 91 | 1004.8 |
| 20260506190603 | 15 | 159 | 4.8 | 14.5 | 0.10 | 0.48 | 0.33 | 91 | 1004.9 |
| 20260506190032 | 15 | 188 | 4.8 | 22.5 | 0.10 | 0.46 | 0.30 | 90 | 1005.1 |
| 20260506185535 | 15 | 138 | 4.8 | 17.7 | 0.13 | 0.46 | 0.30 | 90 | 1005.2 |
| 20260506185023 | 15 | 160 | 3.2 | 11.3 | 0.13 | 0.43 | 0.28 | 91 | 1005.3 |
| 20260506184551 | 15 | 159 | 6.4 | 12.9 | 0.13 | 0.43 | 0.28 | 90 | 1005.3 |
| 20260506184028 | 15 | 133 | 3.2 | 12.9 | 0.13 | 0.41 | 0.25 | 90 | 1005.3 |
| 20260506183538 | 15 | 148 | 3.2 | 12.9 | 0.15 | 0.41 | 0.25 | 92 | 1005.5 |
| 20260506183025 | 15 | 145 | 6.4 | 12.9 | 0.15 | 0.41 | 0.25 | 89 | 1005.6 |
| 20260506182542 | 15 | 148 | 4.8 | 11.3 | 0.18 | 0.41 | 0.25 | 90 | 1005.7 |
| 20260506182028 | 15 | 121 | 6.4 | 16.1 | 0.20 | 0.41 | 0.25 | 90 | 1005.7 |
| 20260506181605 | 16 | 169 | 8.0 | 12.9 | 0.18 | 0.38 | 0.23 | 90 | 1005.8 |
| 20260506181034 | 16 | 149 | 4.8 | 12.9 | 0.20 | 0.38 | 0.23 | 89 | 1005.8 |
| 20260506180534 | 15 | 169 | 3.2 | 11.3 | 0.18 | 0.36 | 0.20 | 91 | 1005.9 |
| 20260506180031 | 15 | 157 | 6.4 | 11.3 | 0.20 | 0.36 | 0.20 | 90 | 1006.1 |
| 20260506175546 | 16 | 175 | 6.4 | 12.9 | 0.18 | 0.33 | 0.18 | 89 | 1006.1 |
| 20260506175033 | 16 | 123 | 3.2 | 11.3 | 0.15 | 0.30 | 0.15 | 89 | 1006.1 |
| 20260506174525 | 15 | 230 | 3.2 | 11.3 | 0.13 | 0.28 | 0.13 | 91 | 1006.1 |
| 20260506174040 | 16 | 171 | 6.4 | 11.3 | 0.13 | 0.28 | 0.13 | 88 | 1006.2 |
| 20260506173546 | 16 | 207 | 4.8 | 9.7 | 0.10 | 0.25 | 0.10 | 88 | 1006.1 |
| 20260506173025 | 16 | 182 | 1.6 | 12.9 | 0.10 | 0.25 | 0.10 | 90 | 1006.2 |
| 20260506172523 | 16 | 154 | 4.8 | 12.9 | 0.08 | 0.23 | 0.08 | 87 | 1006.1 |
| 20260506172033 | 16 | 113 | 3.2 | 11.3 | 0.05 | 0.20 | 0.05 | 89 | 1006.1 |
| 20260506171553 | 16 | 165 | 3.2 | 11.3 | 0.05 | 0.20 | 0.05 | 89 | 1006.1 |
| 20260506171022 | 16 | 180 | 4.8 | 11.3 | 0.03 | 0.18 | 0.03 | 86 | 1006.1 |
| 20260506170547 | 17 | 184 | 3.2 | 11.3 | 0.03 | 0.18 | 0.03 | 83 | 1006.1 |
| 20260506170036 | 17 | 229 | 6.4 | 16.1 | 0.00 | 0.15 | 0.00 | 82 | 1006.0 |
| 20260506165552 | 17 | 194 | 4.8 | 17.7 | 0.00 | 0.15 | 0.00 | 77 | 1005.9 |
| 20260506165038 | 17 | 171 | 6.4 | 20.9 | 0.00 | 0.15 | 0.00 | 81 | 1005.9 |
| 20260506164529 | 17 | 119 | 4.8 | 20.9 | 0.00 | 0.15 | 0.00 | 80 | 1006.0 |
| 20260506164040 | 18 | 243 | 4.8 | 14.5 | 0.00 | 0.15 | 0.00 | 77 | 1006.0 |
| 20260506163527 | 18 | 153 | 4.8 | 20.9 | 0.00 | 0.15 | 0.00 | 75 | 1006.0 |
| 20260506163057 | 18 | 193 | 9.7 | 20.9 | 0.00 | 0.15 | 0.00 | 74 | 1006.0 |
| 20260506162554 | 18 | 154 | 4.8 | 11.3 | 0.00 | 0.15 | 0.00 | 76 | 1006.1 |
| 20260506162042 | 18 | 134 | 1.6 | 12.9 | 0.00 | 0.15 | 0.00 | 75 | 1006.2 |
| 20260506161546 | 18 | 175 | 6.4 | 12.9 | 0.00 | 0.15 | 0.00 | 75 | 1006.2 |
| 20260506161023 | 18 | 173 | 3.2 | 8.0 | 0.00 | 0.15 | 0.00 | 75 | 1006.3 |
| 20260506160551 | 18 | 120 | 3.2 | 6.4 | 0.00 | 0.15 | 0.00 | 76 | 1006.4 |
| 20260506160049 | 18 | 196 | 1.6 | 6.4 | 0.00 | 0.15 | 0.00 | 77 | 1006.6 |
| 20260506155525 | 18 | 130 | 1.6 | 6.4 | 0.00 | 0.15 | 0.00 | 79 | 1006.7 |
| 20260506155039 | 17 | 192 | 1.6 | 4.8 | 0.00 | 0.15 | 0.00 | 81 | 1006.8 |
| 20260506154611 | 17 | 192 | 3.2 | 6.4 | 0.00 | 0.15 | 0.00 | 77 | 1007.0 |
| 20260506154030 | 17 | 149 | 3.2 | 6.4 | 0.00 | 0.15 | 0.00 | 77 | 1007.3 |
| 20260506153533 | 17 | 122 | 1.6 | 11.3 | 0.00 | 0.15 | 0.00 | 78 | 1007.4 |
| 20260506153030 | 17 | 169 | 3.2 | 11.3 | 0.00 | 0.15 | 0.00 | 76 | 1007.5 |
| 20260506152528 | 17 | 167 | 3.2 | 6.4 | 0.00 | 0.15 | 0.00 | 75 | 1007.4 |
| 20260506152038 | 17 | 181 | 3.2 | 6.4 | 0.00 | 0.15 | 0.00 | 76 | 1007.4 |
| 20260506151531 | 17 | 235 | 0.0 | 4.8 | 0.00 | 0.15 | 0.00 | 78 | 1007.4 |
| 20260506151030 | 17 | 162 | 1.6 | 11.3 | 0.00 | 0.15 | 0.00 | 76 | 1007.4 |
| 20260506150530 | 17 | 170 | 3.2 | 11.3 | 0.00 | 0.15 | 0.00 | 76 | 1007.5 |
| 20260506150022 | 17 | 162 | 3.2 | 11.3 | 0.00 | 0.15 | 0.00 | 78 | 1007.5 |
| 20260506145542 | 17 | 134 | 3.2 | 12.9 | 0.00 | 0.15 | 0.00 | 76 | 1007.3 |
| 20260506145030 | 17 | 138 | 6.4 | 12.9 | 0.00 | 0.15 | 0.00 | 75 | 1007.3 |
| 20260506144531 | 17 | 190 | 6.4 | 14.5 | 0.00 | 0.15 | 0.00 | 75 | 1007.3 |
| 20260506144026 | 17 | 130 | 4.8 | 17.7 | 0.00 | 0.15 | 0.00 | 77 | 1007.4 |
| 20260506143548 | 17 | 144 | 4.8 | 17.7 | 0.00 | 0.15 | 0.00 | 77 | 1007.5 |
| 20260506143037 | 17 | 165 | 4.8 | 9.7 | 0.00 | 0.15 | 0.00 | 76 | 1007.5 |
| 20260506142535 | 17 | 119 | 3.2 | 8.0 | 0.00 | 0.15 | 0.00 | 79 | 1007.3 |
| 20260506142038 | 17 | 138 | 4.8 | 8.0 | 0.00 | 0.15 | 0.00 | 76 | 1007.3 |
| 20260506141544 | 17 | 130 | 3.2 | 6.4 | 0.00 | 0.15 | 0.00 | 77 | 1007.3 |
| 20260506141026 | 17 | 165 | 4.8 | 8.0 | 0.00 | 0.15 | 0.00 | 78 | 1007.3 |
| 20260506140531 | 16 | 143 | 1.6 | 8.0 | 0.00 | 0.15 | 0.00 | 79 | 1007.4 |
| 20260506135539 | 16 | 150 | 6.4 | 9.7 | 0.00 | 0.15 | 0.00 | 79 | 1007.2 |
| 20260506135105 | 16 | 164 | 0.0 | 6.4 | 0.00 | 0.15 | 0.00 | 82 | 1007.2 |
| 20260506134547 | 16 | 119 | 3.2 | 6.4 | 0.00 | 0.15 | 0.00 | 80 | 1007.2 |
| 20260506134037 | 16 | 105 | 0.0 | 4.8 | 0.00 | 0.15 | 0.00 | 81 | 1007.5 |
| 20260506133529 | 16 | 141 | 0.0 | 3.2 | 0.00 | 0.15 | 0.00 | 81 | 1007.6 |
| 20260506133040 | 16 | 196 | 1.6 | 6.4 | 0.00 | 0.15 | 0.00 | 81 | 1007.7 |
| 20260506132537 | 15 | 180 | 1.6 | 8.0 | 0.00 | 0.15 | 0.00 | 82 | 1008.0 |
| 20260506132026 | 15 | 203 | 3.2 | 8.0 | 0.00 | 0.15 | 0.00 | 80 | 1008.0 |
| 20260506131546 | 15 | 238 | 1.6 | 8.0 | 0.00 | 0.15 | 0.00 | 80 | 1008.0 |
| 20260506131036 | 15 | 232 | 1.6 | 8.0 | 0.00 | 0.15 | 0.00 | 81 | 1007.9 |
| 20260506130529 | 15 | 142 | 0.0 | 4.8 | 0.00 | 0.15 | 0.00 | 81 | 1007.8 |
| 20260506130025 | 15 | 163 | 1.6 | 9.7 | 0.00 | 0.15 | 0.00 | 80 | 1007.6 |
| 20260506125537 | 15 | 179 | 3.2 | 9.7 | 0.00 | 0.15 | 0.00 | 80 | 1007.6 |
| 20260506125038 | 15 | 159 | 4.8 | 14.5 | 0.00 | 0.15 | 0.00 | 80 | 1007.8 |
| 20260506124611 | 15 | 142 | 3.2 | 14.5 | 0.00 | 0.15 | 0.00 | 80 | 1008.0 |
| 20260506124039 | 15 | 192 | 0.0 | 3.2 | 0.00 | 0.15 | 0.00 | 80 | 1008.0 |
| 20260506123529 | 15 | 107 | 1.6 | 8.0 | 0.00 | 0.15 | 0.00 | 80 | 1007.7 |
| 20260506123058 | 15 | 116 | 4.8 | 8.0 | 0.00 | 0.15 | 0.00 | 80 | 1007.7 |
| 20260506122548 | 15 | 213 | 1.6 | 6.4 | 0.00 | 0.15 | 0.00 | 80 | 1007.7 |
| 20260506122032 | 15 | 192 | 0.0 | 6.4 | 0.00 | 0.15 | 0.00 | 82 | 1007.7 |
| 20260506121544 | 15 | 236 | 4.8 | 6.4 | 0.00 | 0.15 | 0.00 | 80 | 1007.8 |
| 20260506121029 | 15 | 130 | 1.6 | 6.4 | 0.00 | 0.15 | 0.00 | 81 | 1007.8 |
| 20260506120532 | 15 | 198 | 3.2 | 6.4 | 0.00 | 0.15 | 0.00 | 81 | 1007.9 |
| 20260506120026 | 15 | 167 | 0.0 | 6.4 | 0.00 | 0.15 | 0.00 | 80 | 1008.1 |
| 20260506115523 | 15 | 165 | 1.6 | 6.4 | 0.00 | 0.15 | 0.00 | 80 | 1008.0 |
| 20260506115059 | 15 | 168 | 1.6 | 11.3 | 0.00 | 0.15 | 0.00 | 81 | 1008.1 |
| 20260506114547 | 15 | 200 | 1.6 | 11.3 | 0.00 | 0.15 | 0.00 | 82 | 1008.1 |
| 20260506114034 | 15 | 151 | 1.6 | 8.0 | 0.00 | 0.15 | 0.00 | 80 | 1008.0 |
| 20260506113553 | 15 | 172 | 4.8 | 8.0 | 0.00 | 0.15 | 0.00 | 81 | 1008.0 |
| 20260506113031 | 14 | 168 | 0.0 | 4.8 | 0.00 | 0.15 | 0.00 | 82 | 1008.2 |
| 20260506112528 | 14 | 121 | 3.2 | 8.0 | 0.00 | 0.15 | 0.00 | 84 | 1008.1 |
| 20260506112041 | 13 | 115 | 3.2 | 8.0 | 0.00 | 0.15 | 0.00 | 85 | 1008.1 |
| 20260506111525 | 14 | 87 | 0.0 | 0.0 | 0.00 | 0.15 | 0.00 | 83 | 1008.1 |
| 20260506111034 | 14 | 136 | 0.0 | 3.2 | 0.00 | 0.15 | 0.00 | 81 | 1008.1 |
| 20260506110546 | 13 | 136 | 0.0 | 4.8 | 0.00 | 0.15 | 0.00 | 82 | 1008.0 |
| 20260506110049 | 13 | 127 | 0.0 | 4.8 | 0.00 | 0.15 | 0.00 | 84 | 1008.0 |
| 20260506105522 | 13 | 130 | 0.0 | 3.2 | 0.00 | 0.15 | 0.00 | 84 | 1008.2 |
| 20260506105040 | 13 | 126 | 1.6 | 3.2 | 0.00 | 0.15 | 0.00 | 84 | 1008.1 |
| 20260506104537 | 14 | 163 | 0.0 | 6.4 | 0.00 | 0.15 | 0.00 | 80 | 1008.2 |
| 20260506104030 | 14 | 155 | 1.6 | 6.4 | 0.00 | 0.15 | 0.00 | 80 | 1008.3 |
| 20260506103549 | 13 | 161 | 1.6 | 6.4 | 0.00 | 0.15 | 0.00 | 82 | 1008.3 |
| 20260506103029 | 13 | 182 | 3.2 | 6.4 | 0.00 | 0.15 | 0.00 | 83 | 1008.0 |
| 20260506102556 | 13 | 155 | 3.2 | 6.4 | 0.00 | 0.15 | 0.00 | 86 | 1008.3 |
| 20260506102038 | 12 | 175 | 1.6 | 6.4 | 0.00 | 0.15 | 0.00 | 87 | 1008.4 |
| 20260506101527 | 12 | 204 | 1.6 | 6.4 | 0.00 | 0.15 | 0.00 | 86 | 1008.1 |
| 20260506101040 | 12 | 182 | 1.6 | 6.4 | 0.00 | 0.15 | 0.00 | 85 | 1008.0 |
| 20260506100552 | 12 | 173 | 1.6 | 3.2 | 0.00 | 0.15 | 0.00 | 87 | 1008.0 |
| 20260506100032 | 12 | 169 | 0.0 | 0.0 | 0.00 | 0.15 | 0.00 | 88 | 1008.1 |
| 20260506095528 | 12 | 193 | 0.0 | 3.2 | 0.00 | 0.15 | 0.00 | 87 | 1008.0 |
| 20260506095027 | 12 | 192 | 1.6 | 3.2 | 0.00 | 0.15 | 0.00 | 89 | 1008.0 |
| 20260506094527 | 12 | 141 | 0.0 | 3.2 | 0.00 | 0.15 | 0.00 | 87 | 1007.7 |
| 20260506094059 | 12 | 121 | 0.0 | 3.2 | 0.00 | 0.15 | 0.00 | 86 | 1007.6 |
| 20260506093548 | 12 | 220 | 0.0 | 1.6 | 0.00 | 0.15 | 0.00 | 87 | 1007.9 |
| 20260506093026 | 12 | 205 | 0.0 | 4.8 | 0.00 | 0.15 | 0.00 | 87 | 1008.0 |
| 20260506092545 | 12 | 203 | 0.0 | 4.8 | 0.00 | 0.15 | 0.00 | 86 | 1007.8 |
| 20260506092046 | 12 | 165 | 1.6 | 4.8 | 0.00 | 0.15 | 0.00 | 87 | 1007.7 |
| 20260506091525 | 12 | 163 | 0.0 | 6.4 | 0.00 | 0.15 | 0.00 | 86 | 1007.8 |
| 20260506091059 | 12 | 199 | 3.2 | 6.4 | 0.00 | 0.15 | 0.00 | 87 | 1007.9 |
| 20260506090525 | 12 | 199 | 3.2 | 6.4 | 0.00 | 0.15 | 0.00 | 88 | 1007.8 |
| 20260506090029 | 12 | 169 | 1.6 | 4.8 | 0.00 | 0.15 | 0.00 | 88 | 1007.8 |
| 20260506085543 | 12 | 184 | 1.6 | 4.8 | 0.00 | 0.15 | 0.00 | 88 | 1007.9 |
| 20260506085029 | 12 | 216 | 1.6 | 6.4 | 0.00 | 0.15 | 0.00 | 88 | 1007.8 |
| 20260506084549 | 12 | 179 | 3.2 | 9.7 | 0.00 | 0.15 | 0.00 | 89 | 1007.9 |
| 20260506084030 | 12 | 173 | 3.2 | 9.7 | 0.00 | 0.15 | 0.00 | 88 | 1008.0 |
| 20260506083530 | 12 | 194 | 3.2 | 8.0 | 0.00 | 0.15 | 0.00 | 88 | 1008.0 |
| 20260506083053 | 12 | 184 | 3.2 | 6.4 | 0.00 | 0.15 | 0.00 | 87 | 1008.0 |
| 20260506082525 | 13 | 163 | 3.2 | 6.4 | 0.00 | 0.15 | 0.00 | 86 | 1008.1 |
| 20260506082037 | 13 | 207 | 1.6 | 8.0 | 0.00 | 0.15 | 0.00 | 86 | 1008.2 |
| 20260506081548 | 13 | 163 | 4.8 | 8.0 | 0.00 | 0.15 | 0.00 | 85 | 1008.1 |
| 20260506081037 | 13 | 147 | 4.8 | 8.0 | 0.00 | 0.15 | 0.00 | 83 | 1008.1 |
| 20260506080543 | 13 | 178 | 3.2 | 8.0 | 0.00 | 0.15 | 0.00 | 83 | 1008.1 |
| 20260506073035 | 14 | 176 | 3.2 | 8.0 | 0.00 | 0.15 | 0.00 | 82 | 1008.0 |
| 20260506072531 | 14 | 164 | 1.6 | 8.0 | 0.00 | 0.15 | 0.00 | 83 | 1008.0 |
| 20260506072053 | 15 | 157 | 3.2 | 8.0 | 0.00 | 0.15 | 0.00 | 80 | 1007.8 |
| 20260506071553 | 14 | 145 | 3.2 | 8.0 | 0.00 | 0.15 | 0.00 | 80 | 1007.8 |
| 20260506071040 | 15 | 142 | 3.2 | 8.0 | 0.00 | 0.15 | 0.00 | 77 | 1007.9 |
| 20260506070530 | 15 | 158 | 3.2 | 6.4 | 0.00 | 0.15 | 0.00 | 77 | 1008.0 |
| 20260506062028 | 16 | 155 | 3.2 | 9.7 | 0.00 | 0.15 | 0.00 | 75 | 1007.6 |
| 20260506061548 | 15 | 177 | 4.8 | 9.7 | 0.00 | 0.15 | 0.00 | 77 | 1007.6 |
| 20260506061032 | 16 | 172 | 3.2 | 12.9 | 0.00 | 0.15 | 0.00 | 77 | 1007.6 |
| 20260506060535 | 15 | 171 | 3.2 | 16.1 | 0.00 | 0.15 | 0.00 | 78 | 1007.5 |
| 20260506051030 | 16 | 174 | 3.2 | 11.3 | 0.00 | 0.15 | 0.00 | 76 | 1007.5 |
| 20260506050525 | 16 | 173 | 3.2 | 11.3 | 0.00 | 0.15 | 0.00 | 75 | 1007.7 |
| 20260506045053 | 16 | 164 | 4.8 | 12.9 | 0.00 | 0.15 | 0.15 | 76 | 1007.6 |
| 20260506044541 | 17 | 155 | 6.4 | 14.5 | 0.00 | 0.15 | 0.15 | 75 | 1007.7 |
| 20260506044033 | 16 | 175 | 4.8 | 14.5 | 0.00 | 0.15 | 0.15 | 76 | 1007.6 |
| 20260506043521 | 17 | 134 | 4.8 | 11.3 | 0.00 | 0.15 | 0.15 | 76 | 1007.6 |
| 20260506043029 | 16 | 188 | 3.2 | 14.5 | 0.00 | 0.15 | 0.15 | 79 | 1007.7 |
| 20260506042552 | 17 | 116 | 3.2 | 12.9 | 0.00 | 0.15 | 0.15 | 77 | 1007.6 |
| 20260506042051 | 16 | 151 | 4.8 | 11.3 | 0.00 | 0.15 | 0.15 | 80 | 1007.6 |
| 20260506041528 | 16 | 121 | 4.8 | 9.7 | 0.00 | 0.15 | 0.15 | 81 | 1007.7 |
| 20260506041046 | 16 | 251 | 4.8 | 11.3 | 0.00 | 0.15 | 0.15 | 80 | 1007.6 |
| 20260506040533 | 16 | 176 | 3.2 | 11.3 | 0.00 | 0.15 | 0.15 | 85 | 1007.8 |
| 20260506040037 | 15 | 178 | 3.2 | 8.0 | 0.00 | 0.15 | 0.15 | 87 | 1007.6 |
| 20260506035533 | 16 | 185 | 4.8 | 11.3 | 0.00 | 0.15 | 0.15 | 79 | 1007.4 |
| 20260506035026 | 16 | 156 | 4.8 | 11.3 | 0.00 | 0.15 | 0.15 | 84 | 1007.6 |
| 20260506034524 | 16 | 175 | 1.6 | 8.0 | 0.00 | 0.15 | 0.15 | 84 | 1007.5 |
| 20260506034041 | 17 | 142 | 3.2 | 9.7 | 0.00 | 0.15 | 0.15 | 80 | 1007.5 |
| 20260506033523 | 16 | 122 | 4.8 | 9.7 | 0.00 | 0.15 | 0.15 | 84 | 1007.6 |
| 20260506033039 | 15 | 183 | 3.2 | 8.0 | 0.00 | 0.15 | 0.15 | 88 | 1007.5 |
| 20260506032544 | 15 | 207 | 3.2 | 6.4 | 0.00 | 0.15 | 0.15 | 88 | 1007.6 |
| 20260506032040 | 16 | 140 | 3.2 | 6.4 | 0.00 | 0.15 | 0.15 | 86 | 1007.6 |
| 20260506031543 | 15 | 141 | 1.6 | 6.4 | 0.00 | 0.15 | 0.15 | 87 | 1007.5 |
| 20260506031035 | 15 | 141 | 1.6 | 8.0 | 0.00 | 0.15 | 0.15 | 87 | 1007.6 |
| 20260506030534 | 15 | 200 | 3.2 | 8.0 | 0.00 | 0.15 | 0.15 | 89 | 1007.7 |
| 20260506030035 | 15 | 173 | 4.8 | 6.4 | 0.00 | 0.15 | 0.15 | 89 | 1007.6 |
| 20260506025527 | 14 | 170 | 3.2 | 6.4 | 0.00 | 0.15 | 0.15 | 90 | 1007.6 |
| 20260506025033 | 14 | 174 | 1.6 | 4.8 | 0.00 | 0.15 | 0.15 | 91 | 1007.6 |
| 20260506024530 | 14 | 187 | 3.2 | 8.0 | 0.00 | 0.15 | 0.15 | 91 | 1007.6 |
| 20260506024037 | 14 | 200 | 3.2 | 8.0 | 0.00 | 0.15 | 0.15 | 91 | 1007.5 |
| 20260506023537 | 14 | 182 | 3.2 | 8.0 | 0.00 | 0.15 | 0.15 | 90 | 1007.4 |
| 20260506023025 | 14 | 146 | 3.2 | 8.0 | 0.00 | 0.15 | 0.15 | 90 | 1007.6 |
| 20260506022553 | 14 | 180 | 1.6 | 6.4 | 0.00 | 0.15 | 0.15 | 91 | 1007.6 |
| 20260506022030 | 14 | 217 | 0.0 | 1.6 | 0.00 | 0.15 | 0.15 | 91 | 1007.7 |
| 20260506021529 | 14 | 217 | 0.0 | 4.8 | 0.00 | 0.15 | 0.15 | 91 | 1007.5 |
| 20260506021022 | 14 | 213 | 1.6 | 8.0 | 0.00 | 0.15 | 0.15 | 91 | 1007.5 |
| 20260506020548 | 14 | 177 | 0.0 | 4.8 | 0.00 | 0.15 | 0.15 | 91 | 1007.4 |
| 20260506020032 | 15 | 167 | 1.6 | 4.8 | 0.00 | 0.15 | 0.15 | 88 | 1007.2 |
| 20260506015524 | 15 | 134 | 0.0 | 11.3 | 0.00 | 0.15 | 0.15 | 89 | 1007.2 |
| 20260506015023 | 16 | 140 | 3.2 | 14.5 | 0.00 | 0.15 | 0.15 | 83 | 1007.4 |
| 20260506014537 | 16 | 161 | 4.8 | 14.5 | 0.00 | 0.15 | 0.15 | 83 | 1007.6 |
| 20260506014039 | 16 | 190 | 4.8 | 12.9 | 0.00 | 0.15 | 0.15 | 86 | 1007.7 |
| 20260506013550 | 15 | 173 | 4.8 | 8.0 | 0.00 | 0.15 | 0.15 | 89 | 1007.7 |
| 20260506013100 | 15 | 149 | 1.6 | 8.0 | 0.00 | 0.15 | 0.15 | 90 | 1007.6 |
| 20260506012526 | 15 | 171 | 3.2 | 8.0 | 0.00 | 0.15 | 0.15 | 86 | 1007.5 |
| 20260506012027 | 15 | 159 | 0.0 | 3.2 | 0.00 | 0.15 | 0.15 | 91 | 1007.6 |
| 20260506011544 | 15 | 171 | 0.0 | 0.0 | 0.00 | 0.15 | 0.15 | 91 | 1007.7 |
| 20260506011026 | 15 | 173 | 0.0 | 0.0 | 0.00 | 0.15 | 0.15 | 92 | 1007.5 |